ěÝzenÝ letovÚho provozu ╚eskÚ republiky
Letiste: LKTB Aktualizace: 16.04.2024 07:00:59  UTC
 METAR LKTB 16.04. 07:00 ...
METAR LKTB 160700Z 26010KT 9999 FEW045 07/M01 Q1006 NOSIG=
 TAF LKTB 16.04. 05:00 ...
TAF LKTB 160500Z 1606/1706 28010KT CAVOK      TEMPO 1609/1706 9999 -SHRA BKN035      TEMPO 1612/1616 30014G26KT      BECMG 1616/1618 22008KT      BECMG 1701/1703 32012KT=